createdAt,value
2022-12-24T00:04:11.819Z,10.87
2022-12-24T00:09:33.984Z,9.80
2022-12-24T00:14:56.228Z,8.00
2022-12-24T00:20:18.616Z,12.33
2022-12-24T00:25:41.085Z,10.07
2022-12-24T00:31:18.387Z,8.63
2022-12-24T00:36:40.948Z,8.47
2022-12-24T00:42:03.333Z,7.80
2022-12-24T00:47:25.721Z,8.67
2022-12-24T00:52:48.894Z,7.53
2022-12-24T00:58:11.487Z,9.03
2022-12-24T01:03:37.107Z,7.80
2022-12-24T01:08:59.281Z,11.83
2022-12-24T01:14:21.877Z,8.83
2022-12-24T01:19:44.167Z,12.00
2022-12-24T01:25:06.954Z,8.17
2022-12-24T01:30:29.329Z,11.67
2022-12-24T01:35:51.746Z,10.03
2022-12-24T01:41:38.859Z,10.40
2022-12-24T01:47:27.827Z,13.20
2022-12-24T01:52:50.564Z,8.87
2022-12-24T01:58:15.752Z,10.00
2022-12-24T02:03:38.336Z,15.37
2022-12-24T02:09:00.507Z,12.97
2022-12-24T02:14:23.377Z,12.53
2022-12-24T02:20:19.680Z,12.03
2022-12-24T02:26:02.976Z,14.93
2022-12-24T02:32:04.721Z,12.70
2022-12-24T02:37:32.926Z,13.93
2022-12-24T02:43:08.359Z,15.60
2022-12-24T02:48:31.964Z,25.53
2022-12-24T02:53:54.747Z,17.00
2022-12-24T02:59:29.818Z,19.30
2022-12-24T03:05:04.325Z,20.50
2022-12-24T03:10:46.689Z,21.23
2022-12-24T03:16:13.272Z,17.57
2022-12-24T03:21:39.415Z,19.47
2022-12-24T03:27:03.246Z,19.17
2022-12-24T03:32:29.133Z,21.00
2022-12-24T03:37:51.923Z,22.77
2022-12-24T03:43:14.223Z,18.20
2022-12-24T03:48:36.775Z,19.87
2022-12-24T03:53:59.756Z,20.40
2022-12-24T03:59:21.938Z,16.67
2022-12-24T04:04:44.293Z,18.40
2022-12-24T04:10:07.181Z,18.37
2022-12-24T04:15:29.593Z,15.03
2022-12-24T04:20:52.501Z,15.00
2022-12-24T04:26:15.276Z,18.20
2022-12-24T04:31:37.766Z,18.03
2022-12-24T04:37:00.002Z,16.57
2022-12-24T04:42:22.170Z,14.43
2022-12-24T04:47:44.544Z,11.60
2022-12-24T04:53:06.923Z,16.53
2022-12-24T04:58:29.449Z,12.83
2022-12-24T05:03:52.511Z,13.83
2022-12-24T05:09:15.013Z,19.50
2022-12-24T05:14:37.320Z,16.67
2022-12-24T05:19:59.473Z,14.93
2022-12-24T05:25:40.807Z,12.07
2022-12-24T05:31:03.064Z,17.10
2022-12-24T05:36:25.878Z,16.80
2022-12-24T05:41:48.366Z,18.17
2022-12-24T05:47:10.809Z,19.70
2022-12-24T05:52:33.268Z,15.10
2022-12-24T05:57:55.538Z,14.10
2022-12-24T06:03:17.942Z,14.37
2022-12-24T06:08:41.984Z,17.17
2022-12-24T06:14:04.566Z,14.53
2022-12-24T06:19:26.972Z,18.60
2022-12-24T06:24:49.496Z,16.70
2022-12-24T06:30:15.019Z,18.20
2022-12-24T06:35:37.260Z,16.50
2022-12-24T06:40:59.882Z,16.87
2022-12-24T06:46:22.514Z,15.27
2022-12-24T06:51:45.036Z,18.10
2022-12-24T06:57:07.477Z,13.73
2022-12-24T07:02:30.171Z,15.00
2022-12-24T07:07:52.783Z,17.57
2022-12-24T07:13:15.466Z,17.83
2022-12-24T07:18:37.836Z,28.47
2022-12-24T07:24:00.477Z,29.37
2022-12-24T07:29:22.971Z,29.30
2022-12-24T07:34:45.223Z,34.23
2022-12-24T07:40:09.711Z,20.20
2022-12-24T07:45:32.454Z,22.77
2022-12-24T07:50:56.885Z,21.67
2022-12-24T07:56:19.333Z,23.20
2022-12-24T08:01:42.041Z,19.63
2022-12-24T08:07:06.038Z,19.57
2022-12-24T08:12:28.201Z,17.27
2022-12-24T08:17:50.399Z,20.43
2022-12-24T08:23:13.350Z,22.53
2022-12-24T08:28:36.228Z,21.57
2022-12-24T08:33:58.705Z,24.33
2022-12-24T08:39:21.390Z,22.13
2022-12-24T08:44:43.701Z,20.53
2022-12-24T08:50:07.127Z,23.63
2022-12-24T08:55:29.619Z,15.60
2022-12-24T09:00:52.166Z,19.57
2022-12-24T09:06:18.664Z,19.73
2022-12-24T09:11:41.289Z,22.13
2022-12-24T09:17:03.544Z,24.73
2022-12-24T09:22:25.933Z,18.07
2022-12-24T09:27:48.640Z,21.47
2022-12-24T09:33:11.336Z,16.50
2022-12-24T09:38:34.559Z,20.77
2022-12-24T09:44:07.104Z,18.00
2022-12-24T09:49:41.068Z,20.53
2022-12-24T09:55:28.639Z,18.70
2022-12-24T10:00:51.786Z,17.80
2022-12-24T10:06:26.962Z,20.27
2022-12-24T10:12:21.241Z,15.83
2022-12-24T10:17:57.646Z,23.03
2022-12-24T10:23:32.556Z,42.57
2022-12-24T10:29:09.231Z,34.97
2022-12-24T10:34:38.313Z,19.30
2022-12-24T10:40:02.741Z,21.80
2022-12-24T10:45:29.999Z,20.60
2022-12-24T10:51:06.208Z,18.87
2022-12-24T10:56:28.890Z,24.20
2022-12-24T11:01:51.869Z,18.17
2022-12-24T11:07:20.692Z,18.73
2022-12-24T11:13:05.826Z,15.53
2022-12-24T11:18:36.683Z,16.67
2022-12-24T11:24:27.081Z,18.17
2022-12-24T11:29:49.735Z,18.17
2022-12-24T11:35:23.452Z,24.40
2022-12-24T11:40:49.656Z,17.53
2022-12-24T11:46:39.899Z,18.83
2022-12-24T11:52:12.238Z,17.83
2022-12-24T11:57:50.403Z,25.83
2022-12-24T12:03:32.849Z,23.53
2022-12-24T12:09:05.963Z,24.20
2022-12-24T12:14:35.390Z,27.80
2022-12-24T12:20:05.445Z,37.10
2022-12-24T12:25:46.627Z,27.70
2022-12-24T12:31:15.787Z,20.97
2022-12-24T12:37:14.217Z,22.57
2022-12-24T12:42:39.765Z,23.77
2022-12-24T12:48:21.155Z,21.40
2022-12-24T12:54:04.789Z,27.33
2022-12-24T12:59:27.051Z,27.93
2022-12-24T13:04:58.406Z,23.73
2022-12-24T13:10:42.300Z,25.53
2022-12-24T13:16:36.887Z,30.67
2022-12-24T13:21:59.531Z,35.43
2022-12-24T13:27:29.506Z,37.43
2022-12-24T13:32:53.780Z,26.87
2022-12-24T13:38:28.459Z,27.70
2022-12-24T13:44:14.790Z,23.17
2022-12-24T13:49:41.378Z,24.40
2022-12-24T13:55:15.239Z,27.40
2022-12-24T14:00:42.778Z,21.20
2022-12-24T14:06:20.873Z,24.60
2022-12-24T14:12:01.714Z,24.47
2022-12-24T14:17:29.854Z,23.93
2022-12-24T14:22:52.423Z,24.20
2022-12-24T14:28:22.069Z,23.37
2022-12-24T14:33:45.499Z,21.33
2022-12-24T14:39:16.868Z,19.23
2022-12-24T14:45:06.567Z,15.07
2022-12-24T14:50:34.836Z,18.03
2022-12-24T14:55:57.423Z,17.60
2022-12-24T15:01:24.767Z,26.00
2022-12-24T15:06:54.676Z,42.17
2022-12-24T15:12:17.019Z,27.50
2022-12-24T15:17:39.633Z,23.47
2022-12-24T15:23:02.366Z,21.33
2022-12-24T15:28:24.740Z,20.43
2022-12-24T15:33:48.691Z,15.90
2022-12-24T15:39:16.902Z,13.93
2022-12-24T15:45:03.487Z,12.37
2022-12-24T15:50:33.252Z,13.13
2022-12-24T15:56:28.375Z,9.97
2022-12-24T16:01:50.767Z,21.23
2022-12-24T16:07:24.461Z,22.23
2022-12-24T16:12:47.157Z,21.43
2022-12-24T16:18:16.955Z,19.43
2022-12-24T16:23:47.591Z,27.80
2022-12-24T16:29:13.164Z,15.40
2022-12-24T16:34:35.795Z,15.77
2022-12-24T16:39:59.126Z,13.60
2022-12-24T16:45:22.405Z,16.40
2022-12-24T16:50:44.944Z,12.87
2022-12-24T16:56:07.497Z,14.10
2022-12-24T17:01:30.780Z,11.07
2022-12-24T17:06:53.135Z,18.43
2022-12-24T17:12:15.720Z,15.03
2022-12-24T17:17:38.352Z,9.27
2022-12-24T17:23:00.728Z,19.27
2022-12-24T17:28:23.087Z,10.90
2022-12-24T17:33:45.662Z,8.33
2022-12-24T17:39:07.892Z,7.33
2022-12-24T17:44:30.729Z,11.80
2022-12-24T17:49:53.460Z,7.13
2022-12-24T17:55:15.766Z,8.70
2022-12-24T18:00:38.529Z,8.87
2022-12-24T18:06:09.155Z,8.40
2022-12-24T18:11:34.069Z,9.83
2022-12-24T18:16:56.380Z,12.37
2022-12-24T18:22:18.722Z,10.77
2022-12-24T18:27:41.366Z,10.60
2022-12-24T18:33:03.730Z,11.23
2022-12-24T18:38:29.834Z,18.90
2022-12-24T18:43:53.321Z,12.53
2022-12-24T18:49:15.697Z,17.63
2022-12-24T18:54:40.000Z,14.60
2022-12-24T19:00:02.164Z,17.47
2022-12-24T19:05:24.555Z,16.50
2022-12-24T19:10:46.882Z,24.73
2022-12-24T19:16:09.550Z,18.00
2022-12-24T19:21:32.630Z,19.00
2022-12-24T19:26:55.073Z,20.77
2022-12-24T19:32:17.746Z,14.67
2022-12-24T19:37:40.117Z,16.50
2022-12-24T19:43:02.629Z,12.07
2022-12-24T19:48:24.843Z,11.07
2022-12-24T19:53:48.274Z,12.50
2022-12-24T19:59:10.779Z,16.27
2022-12-24T20:04:33.184Z,15.00
2022-12-24T20:09:55.518Z,10.03
2022-12-24T20:15:18.029Z,12.53
2022-12-24T20:20:41.494Z,20.43
2022-12-24T20:26:05.577Z,16.40
2022-12-24T20:31:29.954Z,15.03
2022-12-24T20:36:52.786Z,20.70
2022-12-24T20:42:15.700Z,15.97
2022-12-24T20:47:38.907Z,15.60
2022-12-24T20:53:01.403Z,12.60
2022-12-24T20:58:23.707Z,16.17
2022-12-24T21:03:46.313Z,13.60
2022-12-24T21:09:09.055Z,21.03
2022-12-24T21:14:31.536Z,14.10
2022-12-24T21:19:53.826Z,21.03
2022-12-24T21:25:16.127Z,14.83
2022-12-24T21:30:40.501Z,9.67
2022-12-24T21:36:02.816Z,11.10
2022-12-24T21:41:26.239Z,14.80
2022-12-24T21:46:49.515Z,10.43
2022-12-24T21:52:11.684Z,18.43
2022-12-24T21:57:52.595Z,14.13
2022-12-24T22:03:16.063Z,10.17
2022-12-24T22:08:56.900Z,13.73
2022-12-24T22:14:19.181Z,10.70
2022-12-24T22:19:43.408Z,10.73
2022-12-24T22:25:06.375Z,12.80
2022-12-24T22:30:29.584Z,16.73
2022-12-24T22:35:52.109Z,12.67
2022-12-24T22:41:15.041Z,9.47
2022-12-24T22:46:37.279Z,10.57
2022-12-24T22:51:59.698Z,10.87
2022-12-24T22:57:21.882Z,15.40
2022-12-24T23:02:44.510Z,11.73
2022-12-24T23:08:07.967Z,12.87
2022-12-24T23:13:48.483Z,8.23
2022-12-24T23:19:10.966Z,11.30
2022-12-24T23:24:34.854Z,18.17
2022-12-24T23:29:57.553Z,10.80
2022-12-24T23:35:19.950Z,14.53
2022-12-24T23:40:42.671Z,13.20
2022-12-24T23:46:05.412Z,15.53
2022-12-24T23:51:28.394Z,16.97
2022-12-24T23:56:50.720Z,10.43
